createdAt,value
2018-05-31T00:01:28.598Z,6.20
2018-05-31T00:03:54.884Z,6.70
2018-05-31T00:06:21.240Z,7.87
2018-05-31T00:08:47.954Z,7.07
2018-05-31T00:11:15.154Z,7.40
2018-05-31T00:13:41.435Z,8.13
2018-05-31T00:16:07.776Z,7.60
2018-05-31T00:18:34.143Z,7.60
2018-05-31T00:21:00.494Z,7.77
2018-05-31T00:23:26.782Z,8.13
2018-05-31T00:25:53.839Z,7.80
2018-05-31T00:28:20.912Z,8.07
2018-05-31T00:30:48.009Z,7.97
2018-05-31T00:33:14.423Z,8.33
2018-05-31T00:35:40.741Z,8.33
2018-05-31T00:38:07.019Z,7.77
2018-05-31T00:40:33.358Z,8.53
2018-05-31T00:42:59.663Z,8.10
2018-05-31T00:45:26.004Z,8.13
2018-05-31T00:47:52.283Z,7.27
2018-05-31T00:50:19.577Z,8.03
2018-05-31T00:52:45.985Z,8.93
2018-05-31T00:55:12.557Z,8.50
2018-05-31T00:57:38.895Z,9.10
2018-05-31T01:00:05.331Z,8.37
2018-05-31T01:02:31.759Z,9.63
2018-05-31T01:04:59.039Z,8.47
2018-05-31T01:07:25.483Z,9.63
2018-05-31T01:09:51.794Z,8.97
2018-05-31T01:12:18.404Z,8.50
2018-05-31T01:14:44.725Z,8.70
2018-05-31T01:17:11.079Z,8.17
2018-05-31T01:19:37.379Z,8.07
2018-05-31T01:22:03.692Z,7.50
2018-05-31T01:24:30.035Z,7.73
2018-05-31T01:26:56.284Z,7.70
2018-05-31T01:29:22.573Z,7.63
2018-05-31T01:31:48.849Z,7.40
2018-05-31T01:34:15.109Z,7.57
2018-05-31T01:36:41.513Z,8.80
2018-05-31T01:39:07.887Z,7.70
2018-05-31T01:41:34.365Z,8.83
2018-05-31T01:44:01.593Z,8.77
2018-05-31T01:46:27.900Z,8.30
2018-05-31T01:48:54.937Z,8.07
2018-05-31T01:51:21.282Z,7.57
2018-05-31T01:53:47.595Z,8.60
2018-05-31T01:56:13.886Z,9.60
2018-05-31T01:58:40.885Z,9.90
2018-05-31T02:01:07.107Z,7.87
2018-05-31T02:03:33.395Z,8.97
2018-05-31T02:06:00.373Z,8.57
2018-05-31T02:08:26.875Z,9.23
2018-05-31T02:10:53.237Z,8.43
2018-05-31T02:13:19.829Z,7.80
2018-05-31T02:15:47.611Z,9.30
2018-05-31T02:18:19.403Z,8.80
2018-05-31T02:20:49.563Z,8.70
2018-05-31T02:23:19.848Z,7.40
2018-05-31T02:25:49.377Z,7.80
2018-05-31T02:28:16.276Z,8.40
2018-05-31T02:30:43.434Z,9.47
2018-05-31T02:33:09.900Z,8.03
2018-05-31T02:35:36.272Z,8.63
2018-05-31T02:38:02.931Z,8.70
2018-05-31T02:40:29.733Z,8.53
2018-05-31T02:42:56.728Z,8.67
2018-05-31T02:45:23.614Z,8.00
2018-05-31T02:47:50.517Z,9.63
2018-05-31T02:50:18.261Z,9.40
2018-05-31T02:52:45.431Z,8.80
2018-05-31T02:55:11.808Z,9.03
2018-05-31T02:57:38.131Z,8.50
2018-05-31T03:00:04.495Z,8.77
2018-05-31T03:02:33.763Z,8.67
2018-05-31T03:05:03.837Z,9.80
2018-05-31T03:07:33.649Z,10.27
2018-05-31T03:10:02.856Z,9.30
2018-05-31T03:12:32.743Z,9.30
2018-05-31T03:14:59.783Z,10.37
2018-05-31T03:17:26.019Z,10.57
2018-05-31T03:19:53.060Z,12.30
2018-05-31T03:22:19.323Z,9.90
2018-05-31T03:24:45.663Z,9.93
2018-05-31T03:27:11.957Z,10.23
2018-05-31T03:29:38.299Z,9.30
2018-05-31T03:32:04.620Z,9.83
2018-05-31T03:34:31.818Z,9.47
2018-05-31T03:36:58.712Z,9.43
2018-05-31T03:39:26.274Z,9.63
2018-05-31T03:41:53.018Z,9.93
2018-05-31T03:44:19.685Z,9.53
2018-05-31T03:46:45.996Z,10.07
2018-05-31T03:49:12.536Z,9.87
2018-05-31T03:51:38.797Z,9.20
2018-05-31T03:54:07.154Z,8.40
2018-05-31T03:56:33.568Z,8.03
2018-05-31T03:59:00.644Z,8.67
2018-05-31T04:01:26.994Z,8.53
2018-05-31T04:03:54.006Z,8.80
2018-05-31T04:06:23.562Z,8.00
2018-05-31T04:08:51.908Z,8.10
2018-05-31T04:11:19.372Z,7.60
2018-05-31T04:13:46.150Z,6.80
2018-05-31T04:16:12.621Z,8.37
2018-05-31T04:18:39.777Z,7.63
2018-05-31T04:21:06.116Z,8.20
2018-05-31T04:23:33.150Z,7.40
2018-05-31T04:25:59.484Z,7.13
2018-05-31T04:28:25.813Z,7.60
2018-05-31T04:30:52.197Z,7.67
2018-05-31T04:33:18.402Z,8.10
2018-05-31T04:35:44.696Z,7.83
2018-05-31T04:38:10.977Z,7.37
2018-05-31T04:40:37.238Z,7.47
2018-05-31T04:43:03.541Z,8.10
2018-05-31T04:45:30.555Z,7.80
2018-05-31T04:47:56.778Z,6.87
2018-05-31T04:50:24.094Z,7.03
2018-05-31T04:52:50.335Z,6.90
2018-05-31T04:55:16.559Z,7.90
2018-05-31T04:57:42.749Z,8.03
2018-05-31T05:00:09.004Z,7.60
2018-05-31T05:02:35.247Z,7.87
2018-05-31T05:05:01.493Z,7.90
2018-05-31T05:07:27.861Z,8.60
2018-05-31T05:09:54.627Z,7.80
2018-05-31T05:12:20.992Z,8.03
2018-05-31T05:14:47.267Z,7.70
2018-05-31T05:17:13.539Z,8.27
2018-05-31T05:19:39.748Z,7.47
2018-05-31T05:22:05.996Z,7.60
2018-05-31T05:24:32.277Z,7.60
2018-05-31T05:26:58.508Z,8.10
2018-05-31T05:29:25.218Z,7.77
2018-05-31T05:31:51.578Z,8.60
2018-05-31T05:34:17.989Z,9.70
2018-05-31T05:36:44.236Z,8.07
2018-05-31T05:39:10.507Z,9.33
2018-05-31T05:41:36.730Z,9.23
2018-05-31T05:44:02.957Z,8.33
2018-05-31T05:46:29.185Z,8.73
2018-05-31T05:48:56.182Z,8.07
2018-05-31T05:51:23.471Z,9.40
2018-05-31T05:53:49.756Z,8.60
2018-05-31T05:56:17.919Z,10.10
2018-05-31T05:58:44.202Z,9.40
2018-05-31T06:01:10.521Z,8.70
2018-05-31T06:03:37.804Z,9.37
2018-05-31T06:06:04.079Z,9.77
2018-05-31T06:08:31.388Z,9.00
2018-05-31T06:10:58.702Z,9.23
2018-05-31T06:13:24.972Z,8.67
2018-05-31T06:15:51.248Z,8.83
2018-05-31T06:18:22.267Z,8.90
2018-05-31T06:20:49.539Z,8.40
2018-05-31T06:23:15.763Z,8.40
2018-05-31T06:25:42.039Z,8.27
2018-05-31T06:28:08.431Z,8.83
2018-05-31T06:30:35.839Z,8.10
2018-05-31T06:33:02.071Z,8.33
2018-05-31T06:35:28.349Z,7.60
2018-05-31T06:37:54.614Z,8.20
2018-05-31T06:40:21.923Z,8.17
2018-05-31T06:42:48.163Z,8.40
2018-05-31T06:45:16.722Z,8.03
2018-05-31T06:47:43.014Z,7.80
2018-05-31T06:50:11.485Z,8.50
2018-05-31T06:52:37.871Z,8.40
2018-05-31T06:55:04.243Z,9.63
2018-05-31T06:57:30.623Z,9.00
2018-05-31T06:59:56.866Z,7.50
2018-05-31T07:02:24.206Z,9.03
2018-05-31T07:04:50.548Z,9.10
2018-05-31T07:07:16.886Z,8.50
2018-05-31T07:09:44.059Z,8.03
2018-05-31T07:12:10.251Z,7.83
2018-05-31T07:14:36.483Z,8.37
2018-05-31T07:17:02.719Z,7.87
2018-05-31T07:19:28.908Z,8.20
2018-05-31T07:21:55.903Z,8.83
2018-05-31T07:24:22.199Z,7.70
2018-05-31T07:26:49.287Z,7.90
2018-05-31T07:29:15.555Z,7.83
2018-05-31T07:31:41.807Z,8.93
2018-05-31T07:34:08.097Z,8.47
2018-05-31T07:36:34.414Z,7.83
2018-05-31T07:39:00.725Z,8.53
2018-05-31T07:41:27.030Z,9.57
2018-05-31T07:43:53.330Z,7.53
2018-05-31T07:46:19.751Z,7.33
2018-05-31T07:48:46.006Z,7.20
2018-05-31T07:51:12.357Z,6.83
2018-05-31T07:53:38.665Z,6.87
2018-05-31T07:56:04.911Z,7.73
2018-05-31T07:58:31.328Z,7.50
2018-05-31T08:00:57.611Z,7.73
2018-05-31T08:03:23.952Z,7.47
2018-05-31T08:05:50.230Z,6.57
2018-05-31T08:08:16.535Z,7.57
2018-05-31T08:10:43.023Z,7.93
2018-05-31T08:13:09.335Z,7.73
2018-05-31T08:15:35.581Z,7.13
2018-05-31T08:18:01.912Z,8.30
2018-05-31T08:20:28.221Z,8.60
2018-05-31T08:22:56.635Z,8.30
2018-05-31T08:25:23.313Z,8.50
2018-05-31T08:30:43.037Z,7.80
2018-05-31T08:33:09.690Z,8.27
2018-05-31T08:35:36.107Z,7.77
2018-05-31T08:38:02.405Z,7.80
2018-05-31T08:40:28.804Z,8.43
2018-05-31T08:42:57.242Z,8.90
2018-05-31T08:45:24.262Z,8.90
2018-05-31T08:47:50.518Z,9.20
2018-05-31T08:50:16.829Z,8.10
2018-05-31T08:52:43.235Z,9.43
2018-05-31T08:55:09.471Z,10.33
2018-05-31T08:57:36.133Z,9.40
2018-05-31T09:00:02.432Z,8.30
2018-05-31T09:02:28.788Z,8.63
2018-05-31T09:04:55.043Z,9.53
2018-05-31T09:07:21.316Z,10.27
2018-05-31T09:09:47.633Z,9.50
2018-05-31T09:12:13.923Z,9.10
2018-05-31T09:14:40.133Z,9.87
2018-05-31T09:17:06.427Z,8.80
2018-05-31T09:19:32.719Z,9.80
2018-05-31T09:21:59.169Z,10.50
2018-05-31T09:24:25.604Z,9.90
2018-05-31T09:26:51.923Z,10.50
2018-05-31T09:29:18.215Z,10.80
2018-05-31T09:31:44.538Z,11.20
2018-05-31T09:34:12.686Z,10.10
2018-05-31T09:36:39.191Z,11.20
2018-05-31T09:39:05.505Z,9.60
2018-05-31T09:41:31.760Z,10.80
2018-05-31T09:43:58.022Z,10.00
2018-05-31T09:46:24.300Z,10.77
2018-05-31T09:48:50.637Z,10.50
2018-05-31T09:51:18.106Z,10.67
2018-05-31T09:53:44.493Z,10.67
2018-05-31T09:56:20.995Z,10.50
2018-05-31T09:58:47.335Z,10.60
2018-05-31T10:01:15.697Z,10.47
2018-05-31T10:03:42.019Z,10.20
2018-05-31T10:06:08.267Z,10.57
2018-05-31T10:08:34.489Z,10.83
2018-05-31T10:11:00.714Z,11.33
2018-05-31T10:13:29.205Z,11.00
2018-05-31T10:16:02.912Z,10.47
2018-05-31T10:18:32.280Z,10.20
2018-05-31T10:21:01.693Z,10.77
2018-05-31T10:23:31.903Z,9.90
2018-05-31T10:25:59.479Z,10.80
2018-05-31T10:28:28.820Z,10.73
2018-05-31T10:30:58.720Z,10.90
2018-05-31T10:33:31.368Z,10.87
2018-05-31T10:35:58.680Z,10.60
2018-05-31T10:38:31.704Z,10.60
2018-05-31T10:41:00.944Z,10.80
2018-05-31T10:43:28.397Z,10.40
2018-05-31T10:46:03.909Z,9.93
2018-05-31T10:48:31.369Z,8.87
2018-05-31T10:51:00.354Z,9.50
2018-05-31T10:53:33.726Z,8.97
2018-05-31T10:56:01.525Z,8.43
2018-05-31T10:58:33.041Z,8.77
2018-05-31T11:19:01.942Z,9.53
2018-05-31T11:21:32.793Z,8.90
2018-05-31T11:24:02.329Z,9.30
2018-05-31T11:26:29.256Z,9.30
2018-05-31T11:28:55.610Z,9.40
2018-05-31T11:31:22.271Z,9.37
2018-05-31T11:33:48.611Z,9.03
2018-05-31T11:36:14.836Z,9.83
2018-05-31T11:38:41.264Z,9.30
2018-05-31T11:41:07.636Z,8.60
2018-05-31T11:43:34.048Z,8.97
2018-05-31T11:46:01.313Z,7.83
2018-05-31T11:48:28.524Z,7.67
2018-05-31T11:50:54.989Z,7.63
2018-05-31T11:53:22.959Z,7.07
2018-05-31T11:58:40.144Z,8.10
2018-05-31T12:01:06.838Z,7.50
2018-05-31T12:03:33.498Z,7.10
2018-05-31T12:06:06.135Z,6.90
2018-05-31T12:08:32.733Z,7.83
2018-05-31T12:11:01.330Z,7.70
2018-05-31T12:13:32.112Z,6.70
2018-05-31T12:15:58.620Z,5.80
2018-05-31T12:18:31.957Z,6.87
2018-05-31T12:20:58.287Z,6.10
2018-05-31T12:23:31.432Z,6.80
2018-05-31T12:26:04.778Z,6.40
2018-05-31T12:28:35.200Z,7.93
2018-05-31T12:31:01.656Z,6.50
2018-05-31T12:33:29.253Z,7.03
2018-05-31T12:35:55.594Z,6.53
2018-05-31T12:38:22.595Z,6.43
2018-05-31T12:40:48.869Z,7.60
2018-05-31T12:43:15.164Z,7.13
2018-05-31T12:45:41.609Z,7.23
2018-05-31T12:48:07.951Z,7.17
2018-05-31T12:50:34.288Z,7.90
2018-05-31T12:53:01.672Z,8.10
2018-05-31T12:55:32.585Z,5.97
2018-05-31T12:58:02.688Z,7.03
2018-05-31T13:00:29.864Z,6.70
2018-05-31T13:03:01.037Z,7.40
2018-05-31T13:05:34.400Z,7.77
2018-05-31T13:08:01.855Z,8.20
2018-05-31T13:10:28.296Z,7.70
2018-05-31T13:12:54.805Z,7.27
2018-05-31T13:15:21.185Z,6.70
2018-05-31T13:17:47.599Z,7.60
2018-05-31T13:20:13.989Z,7.50
2018-05-31T13:22:40.251Z,7.73
2018-05-31T13:25:07.581Z,6.97
2018-05-31T13:27:34.367Z,8.10
2018-05-31T13:30:00.836Z,6.03
2018-05-31T13:32:27.915Z,6.83
2018-05-31T13:34:54.466Z,7.77
2018-05-31T13:37:20.937Z,6.00
2018-05-31T13:39:47.342Z,6.53
2018-05-31T13:42:13.695Z,7.20
2018-05-31T13:44:41.172Z,6.67
2018-05-31T13:47:09.203Z,6.23
2018-05-31T13:49:35.491Z,6.53
2018-05-31T13:52:02.968Z,5.40
2018-05-31T13:54:29.267Z,5.70
2018-05-31T13:56:55.547Z,6.27
2018-05-31T13:59:21.925Z,5.50
2018-05-31T14:01:48.327Z,5.90
2018-05-31T14:04:14.959Z,4.53
2018-05-31T14:06:42.267Z,5.60
2018-05-31T14:09:08.676Z,4.63
2018-05-31T14:11:35.015Z,4.17
2018-05-31T14:14:01.515Z,4.67
2018-05-31T14:16:27.802Z,4.80
2018-05-31T14:18:54.074Z,3.90
2018-05-31T14:21:34.788Z,4.20
2018-05-31T14:24:08.217Z,4.07
2018-05-31T14:26:34.815Z,5.10
2018-05-31T14:29:07.819Z,4.20
2018-05-31T14:31:34.852Z,4.47
2018-05-31T14:34:05.077Z,4.70
2018-05-31T14:36:37.707Z,4.17
2018-05-31T14:39:09.199Z,5.10
2018-05-31T14:41:40.417Z,5.07
2018-05-31T14:44:06.734Z,4.40
2018-05-31T14:46:38.538Z,5.10
2018-05-31T14:49:20.704Z,5.60
2018-05-31T14:51:47.171Z,4.87
2018-05-31T14:54:13.485Z,5.73
2018-05-31T14:56:41.931Z,5.10
2018-05-31T14:59:08.336Z,6.20
2018-05-31T15:01:34.644Z,5.77
2018-05-31T15:04:01.532Z,5.10
2018-05-31T15:06:27.848Z,5.80
2018-05-31T15:08:54.273Z,6.20
2018-05-31T15:11:21.124Z,6.53
2018-05-31T15:13:48.471Z,9.30
2018-05-31T15:16:14.800Z,5.93
2018-05-31T15:18:41.040Z,7.60
2018-05-31T15:21:07.389Z,6.93
2018-05-31T15:23:33.704Z,7.30
2018-05-31T15:26:00.023Z,8.63
2018-05-31T15:28:26.439Z,8.20
2018-05-31T15:30:52.799Z,9.10
2018-05-31T15:33:19.024Z,7.00
2018-05-31T15:35:45.398Z,6.83
2018-05-31T15:38:12.180Z,7.17
2018-05-31T15:40:39.104Z,7.40
2018-05-31T15:43:05.452Z,6.00
2018-05-31T15:45:32.507Z,6.33
2018-05-31T15:47:59.570Z,5.70
2018-05-31T15:50:26.628Z,6.60
2018-05-31T15:52:54.070Z,7.33
2018-05-31T15:55:20.520Z,6.97
2018-05-31T15:57:47.154Z,5.83
2018-05-31T16:00:13.492Z,6.90
2018-05-31T16:02:39.932Z,7.70
2018-05-31T16:05:06.230Z,7.63
2018-05-31T16:07:33.310Z,8.20
2018-05-31T16:10:00.246Z,6.60
2018-05-31T16:12:27.624Z,8.03
2018-05-31T16:14:59.583Z,6.33
2018-05-31T16:17:25.969Z,8.20
2018-05-31T16:19:52.384Z,7.13
2018-05-31T16:22:18.903Z,7.00
2018-05-31T16:27:35.601Z,7.23
2018-05-31T16:30:13.133Z,6.37
2018-05-31T16:32:40.311Z,5.87
2018-05-31T16:35:06.706Z,6.57
2018-05-31T16:37:36.419Z,7.10
2018-05-31T16:40:04.235Z,7.20
2018-05-31T16:42:42.464Z,7.60
2018-05-31T16:45:11.200Z,6.70
2018-05-31T16:47:39.911Z,7.60
2018-05-31T16:50:11.805Z,6.87
2018-05-31T16:52:55.189Z,6.77
2018-05-31T16:55:21.677Z,7.57
2018-05-31T16:57:48.027Z,8.10
2018-05-31T17:00:16.767Z,6.37
2018-05-31T17:02:44.598Z,6.67
2018-05-31T17:05:11.955Z,6.47
2018-05-31T17:07:39.033Z,5.67
2018-05-31T17:10:05.679Z,5.80
2018-05-31T17:12:32.710Z,6.30
2018-05-31T17:14:59.360Z,5.47
2018-05-31T17:17:25.721Z,5.03
2018-05-31T17:19:55.407Z,5.33
2018-05-31T17:22:28.832Z,6.03
2018-05-31T17:24:56.876Z,5.97
2018-05-31T17:27:23.457Z,5.67
2018-05-31T17:29:50.418Z,5.77
2018-05-31T17:32:18.722Z,5.30
2018-05-31T17:34:47.483Z,5.40
2018-05-31T17:37:14.866Z,6.10
2018-05-31T17:39:47.484Z,5.77
2018-05-31T17:42:14.990Z,5.17
2018-05-31T17:44:42.249Z,5.57
2018-05-31T17:47:09.745Z,4.50
2018-05-31T17:49:40.350Z,6.40
2018-05-31T17:52:13.001Z,5.30
2018-05-31T17:54:43.846Z,6.20
2018-05-31T17:57:12.983Z,5.13
2018-05-31T17:59:42.038Z,5.77
2018-05-31T18:05:05.415Z,5.90
2018-05-31T18:07:31.818Z,6.40
2018-05-31T18:09:59.353Z,6.30
2018-05-31T18:12:31.583Z,5.60
2018-05-31T18:14:59.172Z,6.17
2018-05-31T18:17:30.811Z,5.93
2018-05-31T18:19:59.611Z,6.00
2018-05-31T18:22:29.126Z,6.27
2018-05-31T18:25:01.606Z,7.60
2018-05-31T18:27:28.835Z,5.87
2018-05-31T18:29:56.756Z,5.67
2018-05-31T18:32:23.240Z,5.80
2018-05-31T18:34:58.530Z,6.57
2018-05-31T18:37:43.357Z,7.23
2018-05-31T18:40:13.201Z,7.37
2018-05-31T18:42:45.780Z,6.73
2018-05-31T18:45:13.825Z,7.23
2018-05-31T18:50:44.270Z,6.90
2018-05-31T18:53:29.732Z,7.33
2018-05-31T18:56:58.047Z,6.53
2018-05-31T18:59:28.741Z,6.70
2018-05-31T19:29:23.942Z,7.67
2018-05-31T19:34:54.470Z,7.83
2018-05-31T19:37:23.769Z,8.33
2018-05-31T19:39:50.133Z,8.20
2018-05-31T19:42:38.963Z,8.23
2018-05-31T19:45:26.998Z,8.70
2018-05-31T19:48:03.373Z,7.70
2018-05-31T19:56:17.255Z,8.60
2018-05-31T20:17:11.072Z,8.63
2018-05-31T20:19:41.309Z,8.03
2018-05-31T20:25:31.035Z,8.10
2018-05-31T20:27:59.573Z,8.27
2018-05-31T20:33:44.130Z,8.23
2018-05-31T20:36:10.891Z,9.83
2018-05-31T20:38:58.055Z,8.60
2018-05-31T20:41:29.469Z,9.27
2018-05-31T20:43:56.102Z,8.50
2018-05-31T20:46:26.401Z,9.00
2018-05-31T20:52:01.944Z,9.30
2018-05-31T20:57:40.191Z,10.07
2018-05-31T21:06:13.232Z,9.30
2018-05-31T21:08:40.573Z,9.20
2018-05-31T21:11:29.321Z,9.40
2018-05-31T21:13:59.250Z,9.60
2018-05-31T21:16:29.502Z,9.40
2018-05-31T21:18:58.920Z,9.90
2018-05-31T21:27:51.111Z,10.30
2018-05-31T21:30:18.232Z,9.20
2018-05-31T21:32:45.254Z,9.07
2018-05-31T21:38:15.926Z,9.40
2018-05-31T21:43:46.627Z,9.87
2018-05-31T21:46:17.671Z,9.50
2018-05-31T21:48:57.583Z,9.90
2018-05-31T21:51:29.394Z,9.20
2018-05-31T21:53:59.689Z,9.50
2018-05-31T21:56:29.954Z,9.40
2018-05-31T21:59:03.481Z,9.70
2018-05-31T22:01:30.898Z,11.00
2018-05-31T22:03:58.649Z,11.80
2018-05-31T22:06:28.141Z,11.23
2018-05-31T22:08:58.933Z,11.97
2018-05-31T22:11:28.814Z,9.97
2018-05-31T22:13:58.219Z,11.60
2018-05-31T22:16:30.101Z,11.00
2018-05-31T22:22:05.994Z,11.60
2018-05-31T22:24:33.743Z,12.13
2018-05-31T22:33:07.540Z,10.63
2018-05-31T22:35:34.519Z,11.33
2018-05-31T22:44:07.322Z,11.10
2018-05-31T22:46:33.698Z,12.60
2018-05-31T22:49:00.611Z,10.90
2018-05-31T22:51:32.106Z,11.10
2018-05-31T22:53:58.571Z,11.20
2018-05-31T22:58:59.067Z,10.90
2018-05-31T23:01:33.998Z,11.23
2018-05-31T23:04:02.559Z,11.13
2018-05-31T23:06:29.217Z,11.47
2018-05-31T23:08:55.478Z,12.80
2018-05-31T23:11:21.913Z,10.70
2018-05-31T23:14:03.374Z,11.77
2018-05-31T23:16:34.014Z,12.47
2018-05-31T23:19:02.622Z,10.73
2018-05-31T23:27:34.624Z,11.27
2018-05-31T23:30:04.632Z,11.50
2018-05-31T23:32:34.105Z,12.23
2018-05-31T23:35:03.361Z,12.30
2018-05-31T23:40:33.296Z,12.60
2018-05-31T23:42:59.831Z,11.10
2018-05-31T23:45:26.988Z,12.57
2018-05-31T23:48:08.567Z,12.57
2018-05-31T23:50:35.052Z,12.67
2018-05-31T23:53:03.849Z,11.90
2018-05-31T23:55:36.538Z,14.00
2018-05-31T23:58:06.838Z,10.60
